sensor_id;sensor_type;location;lat;lon;timestamp;pressure;altitude;pressure_sealevel;temperature;humidity
71915;BME280;60387;49.994;14.660;2023-06-26T00:02:22;97764.19;;;22.31;42.05
71915;BME280;60387;49.994;14.660;2023-06-26T00:04:55;97775.66;;;22.33;40.91
71915;BME280;60387;49.994;14.660;2023-06-26T00:07:29;97767.72;;;22.28;40.81
71915;BME280;60387;49.994;14.660;2023-06-26T00:10:03;97770.84;;;22.27;41.22
71915;BME280;60387;49.994;14.660;2023-06-26T00:12:37;97766.84;;;22.24;41.15
71915;BME280;60387;49.994;14.660;2023-06-26T00:15:10;97769.16;;;22.19;42.23
71915;BME280;60387;49.994;14.660;2023-06-26T00:17:43;97761.59;;;22.12;43.80
71915;BME280;60387;49.994;14.660;2023-06-26T00:20:16;97767.44;;;22.07;42.41
71915;BME280;60387;49.994;14.660;2023-06-26T00:22:50;97757.16;;;22.04;42.22
71915;BME280;60387;49.994;14.660;2023-06-26T00:25:23;97759.47;;;22.02;41.96
71915;BME280;60387;49.994;14.660;2023-06-26T00:27:57;97752.34;;;22.01;41.84
71915;BME280;60387;49.994;14.660;2023-06-26T00:30:30;97756.28;;;22.00;43.22
71915;BME280;60387;49.994;14.660;2023-06-26T00:33:03;97763.41;;;22.01;42.33
71915;BME280;60387;49.994;14.660;2023-06-26T00:35:36;97753.44;;;21.93;41.97
71915;BME280;60387;49.994;14.660;2023-06-26T00:38:10;97755.41;;;21.93;43.31
71915;BME280;60387;49.994;14.660;2023-06-26T00:40:43;97751.44;;;21.90;42.54
71915;BME280;60387;49.994;14.660;2023-06-26T00:43:16;97751.78;;;21.89;42.44
71915;BME280;60387;49.994;14.660;2023-06-26T00:45:49;97748.22;;;21.85;42.99
71915;BME280;60387;49.994;14.660;2023-06-26T00:48:23;97745.00;;;21.79;43.18
71915;BME280;60387;49.994;14.660;2023-06-26T00:50:56;97754.44;;;21.78;42.66
71915;BME280;60387;49.994;14.660;2023-06-26T00:53:30;97755.91;;;21.72;42.40
71915;BME280;60387;49.994;14.660;2023-06-26T00:56:05;97751.44;;;21.64;43.73
71915;BME280;60387;49.994;14.660;2023-06-26T00:58:38;97761.31;;;21.65;42.80
71915;BME280;60387;49.994;14.660;2023-06-26T01:01:13;97764.00;;;21.62;42.47
71915;BME280;60387;49.994;14.660;2023-06-26T01:03:48;97768.72;;;21.61;42.63
71915;BME280;60387;49.994;14.660;2023-06-26T01:06:23;97769.91;;;21.60;42.45
71915;BME280;60387;49.994;14.660;2023-06-26T01:08:58;97767.50;;;21.59;42.96
71915;BME280;60387;49.994;14.660;2023-06-26T01:11:32;97768.25;;;21.56;42.95
71915;BME280;60387;49.994;14.660;2023-06-26T01:14:05;97759.47;;;21.50;42.50
71915;BME280;60387;49.994;14.660;2023-06-26T01:16:40;97769.72;;;21.50;42.61
71915;BME280;60387;49.994;14.660;2023-06-26T01:19:19;97761.81;;;21.48;42.59
71915;BME280;60387;49.994;14.660;2023-06-26T01:25:29;97753.06;;;21.43;42.60
71915;BME280;60387;49.994;14.660;2023-06-26T01:28:06;97749.91;;;21.41;43.04
71915;BME280;60387;49.994;14.660;2023-06-26T01:30:43;97744.63;;;21.32;42.67
71915;BME280;60387;49.994;14.660;2023-06-26T01:33:17;97741.88;;;21.32;43.67
71915;BME280;60387;49.994;14.660;2023-06-26T01:35:50;97743.38;;;21.26;42.62
71915;BME280;60387;49.994;14.660;2023-06-26T01:38:24;97739.34;;;21.20;42.73
71915;BME280;60387;49.994;14.660;2023-06-26T01:40:58;97733.41;;;21.18;45.01
71915;BME280;60387;49.994;14.660;2023-06-26T01:46:39;97728.94;;;21.10;44.47
71915;BME280;60387;49.994;14.660;2023-06-26T01:55:12;97717.25;;;20.94;43.78
71915;BME280;60387;49.994;14.660;2023-06-26T01:57:49;97712.91;;;20.93;44.99
71915;BME280;60387;49.994;14.660;2023-06-26T02:00:25;97715.22;;;20.91;45.11
71915;BME280;60387;49.994;14.660;2023-06-26T02:02:59;97714.03;;;20.89;44.35
71915;BME280;60387;49.994;14.660;2023-06-26T02:05:32;97715.19;;;20.88;44.43
71915;BME280;60387;49.994;14.660;2023-06-26T02:08:07;97715.09;;;20.84;44.13
71915;BME280;60387;49.994;14.660;2023-06-26T02:10:41;97716.25;;;20.83;44.39
71915;BME280;60387;49.994;14.660;2023-06-26T02:13:14;97718.94;;;20.80;44.38
71915;BME280;60387;49.994;14.660;2023-06-26T02:15:47;97717.28;;;20.75;44.34
71915;BME280;60387;49.994;14.660;2023-06-26T02:18:21;97711.34;;;20.73;44.55
71915;BME280;60387;49.994;14.660;2023-06-26T02:20:54;97704.19;;;20.69;45.25
71915;BME280;60387;49.994;14.660;2023-06-26T02:23:27;97715.25;;;20.72;44.78
71915;BME280;60387;49.994;14.660;2023-06-26T02:26:01;97698.13;;;20.60;44.36
71915;BME280;60387;49.994;14.660;2023-06-26T02:28:34;97710.50;;;20.69;44.29
71915;BME280;60387;49.994;14.660;2023-06-26T02:31:07;97711.25;;;20.66;44.26
71915;BME280;60387;49.994;14.660;2023-06-26T02:33:41;97720.75;;;20.72;43.79
71915;BME280;60387;49.994;14.660;2023-06-26T02:36:14;97708.50;;;20.66;44.24
71915;BME280;60387;49.994;14.660;2023-06-26T02:38:48;97717.22;;;20.72;44.29
71915;BME280;60387;49.994;14.660;2023-06-26T02:41:21;97725.00;;;20.66;44.24
71915;BME280;60387;49.994;14.660;2023-06-26T02:43:54;97719.50;;;20.66;44.02
71915;BME280;60387;49.994;14.660;2023-06-26T02:46:27;97721.81;;;20.64;43.91
71915;BME280;60387;49.994;14.660;2023-06-26T02:49:01;97722.53;;;20.61;44.10
71915;BME280;60387;49.994;14.660;2023-06-26T02:51:34;97726.53;;;20.64;45.21
71915;BME280;60387;49.994;14.660;2023-06-26T02:54:08;97722.97;;;20.63;47.18
71915;BME280;60387;49.994;14.660;2023-06-26T02:56:41;97717.78;;;20.58;47.99
71915;BME280;60387;49.994;14.660;2023-06-26T02:59:14;97724.00;;;20.55;50.36
71915;BME280;60387;49.994;14.660;2023-06-26T03:01:47;97715.25;;;20.50;49.28
71915;BME280;60387;49.994;14.660;2023-06-26T03:04:21;97719.09;;;20.45;47.95
71915;BME280;60387;49.994;14.660;2023-06-26T03:06:54;97714.75;;;20.44;47.00
71915;BME280;60387;49.994;14.660;2023-06-26T03:09:27;97733.66;;;20.46;46.65
71915;BME280;60387;49.994;14.660;2023-06-26T03:12:01;97714.34;;;20.42;47.34
71915;BME280;60387;49.994;14.660;2023-06-26T03:14:34;97726.59;;;20.48;46.95
71915;BME280;60387;49.994;14.660;2023-06-26T03:17:07;97731.75;;;20.50;46.04
71915;BME280;60387;49.994;14.660;2023-06-26T03:19:40;97728.66;;;20.51;46.00
71915;BME280;60387;49.994;14.660;2023-06-26T03:22:14;97724.06;;;20.59;45.75
71915;BME280;60387;49.994;14.660;2023-06-26T03:24:47;97719.03;;;20.64;45.70
71915;BME280;60387;49.994;14.660;2023-06-26T03:27:20;97720.75;;;20.72;45.73
71915;BME280;60387;49.994;14.660;2023-06-26T03:29:53;97719.00;;;20.83;45.68
71915;BME280;60387;49.994;14.660;2023-06-26T03:32:27;97716.84;;;20.92;45.19
71915;BME280;60387;49.994;14.660;2023-06-26T03:35:00;97712.97;;;20.97;45.15
71915;BME280;60387;49.994;14.660;2023-06-26T03:37:33;97717.81;;;21.29;45.37
71915;BME280;60387;49.994;14.660;2023-06-26T03:40:07;97717.97;;;21.92;45.47
71915;BME280;60387;49.994;14.660;2023-06-26T03:42:42;97719.63;;;22.66;44.45
71915;BME280;60387;49.994;14.660;2023-06-26T03:45:15;97723.06;;;23.36;44.21
71915;BME280;60387;49.994;14.660;2023-06-26T03:47:48;97721.03;;;23.90;43.40
71915;BME280;60387;49.994;14.660;2023-06-26T03:50:22;97721.56;;;24.16;42.41
71915;BME280;60387;49.994;14.660;2023-06-26T03:52:55;97715.25;;;24.23;42.62
71915;BME280;60387;49.994;14.660;2023-06-26T03:55:28;97715.75;;;24.49;42.31
71915;BME280;60387;49.994;14.660;2023-06-26T03:58:02;97728.13;;;25.01;42.15
71915;BME280;60387;49.994;14.660;2023-06-26T04:00:35;97725.41;;;25.60;41.75
71915;BME280;60387;49.994;14.660;2023-06-26T04:03:08;97728.09;;;26.06;41.20
71915;BME280;60387;49.994;14.660;2023-06-26T04:05:42;97723.22;;;26.31;41.02
71915;BME280;60387;49.994;14.660;2023-06-26T04:08:15;97710.84;;;26.46;40.95
71915;BME280;60387;49.994;14.660;2023-06-26T04:10:48;97724.94;;;26.90;40.57
71915;BME280;60387;49.994;14.660;2023-06-26T04:13:22;97727.84;;;27.27;40.11
71915;BME280;60387;49.994;14.660;2023-06-26T04:15:55;97714.81;;;27.60;40.20
71915;BME280;60387;49.994;14.660;2023-06-26T04:18:28;97723.19;;;27.97;39.85
71915;BME280;60387;49.994;14.660;2023-06-26T04:21:11;97733.13;;;27.98;39.33
71915;BME280;60387;49.994;14.660;2023-06-26T04:23:45;97734.25;;;27.67;39.67
71915;BME280;60387;49.994;14.660;2023-06-26T04:26:18;97730.75;;;27.56;39.39
71915;BME280;60387;49.994;14.660;2023-06-26T04:28:51;97730.88;;;27.46;39.52
71915;BME280;60387;49.994;14.660;2023-06-26T04:31:25;97732.59;;;27.26;39.58
71915;BME280;60387;49.994;14.660;2023-06-26T04:33:58;97737.84;;;27.17;39.99
71915;BME280;60387;49.994;14.660;2023-06-26T04:36:31;97734.31;;;27.10;39.89
71915;BME280;60387;49.994;14.660;2023-06-26T04:39:05;97723.22;;;27.03;39.75
71915;BME280;60387;49.994;14.660;2023-06-26T04:41:38;97720.09;;;26.97;40.15
71915;BME280;60387;49.994;14.660;2023-06-26T04:44:12;97728.06;;;26.95;40.12
71915;BME280;60387;49.994;14.660;2023-06-26T04:46:45;97719.34;;;26.93;40.07
71915;BME280;60387;49.994;14.660;2023-06-26T04:49:18;97718.00;;;27.12;40.10
71915;BME280;60387;49.994;14.660;2023-06-26T04:51:51;97717.34;;;27.44;39.75
71915;BME280;60387;49.994;14.660;2023-06-26T04:54:25;97718.53;;;27.87;39.86
71915;BME280;60387;49.994;14.660;2023-06-26T04:56:58;97715.72;;;28.24;39.82
71915;BME280;60387;49.994;14.660;2023-06-26T04:59:32;97712.63;;;28.52;39.15
71915;BME280;60387;49.994;14.660;2023-06-26T05:02:05;97715.38;;;28.82;39.53
71915;BME280;60387;49.994;14.660;2023-06-26T05:04:38;97720.13;;;29.12;39.06
71915;BME280;60387;49.994;14.660;2023-06-26T05:07:12;97722.47;;;29.40;39.05
71915;BME280;60387;49.994;14.660;2023-06-26T05:09:45;97713.34;;;29.62;38.08
71915;BME280;60387;49.994;14.660;2023-06-26T05:12:18;97711.84;;;29.77;37.84
71915;BME280;60387;49.994;14.660;2023-06-26T05:14:51;97710.72;;;29.94;38.32
71915;BME280;60387;49.994;14.660;2023-06-26T05:17:25;97705.53;;;30.16;37.92
71915;BME280;60387;49.994;14.660;2023-06-26T05:19:58;97707.09;;;30.36;37.57
71915;BME280;60387;49.994;14.660;2023-06-26T05:22:32;97698.56;;;30.43;37.32
71915;BME280;60387;49.994;14.660;2023-06-26T05:25:08;97715.97;;;30.70;37.67
71915;BME280;60387;49.994;14.660;2023-06-26T05:27:42;97718.41;;;30.88;36.90
71915;BME280;60387;49.994;14.660;2023-06-26T05:30:16;97708.81;;;31.05;37.32
71915;BME280;60387;49.994;14.660;2023-06-26T05:32:50;97715.41;;;31.30;36.90
71915;BME280;60387;49.994;14.660;2023-06-26T05:35:25;97720.81;;;31.53;36.78
71915;BME280;60387;49.994;14.660;2023-06-26T05:38:01;97713.47;;;31.75;36.02
71915;BME280;60387;49.994;14.660;2023-06-26T05:40:35;97713.16;;;32.01;36.36
71915;BME280;60387;49.994;14.660;2023-06-26T05:43:08;97718.78;;;32.30;36.01
71915;BME280;60387;49.994;14.660;2023-06-26T05:45:42;97710.19;;;32.49;35.23
71915;BME280;60387;49.994;14.660;2023-06-26T05:48:15;97711.34;;;32.64;35.06
71915;BME280;60387;49.994;14.660;2023-06-26T05:50:48;97713.25;;;32.67;32.82
71915;BME280;60387;49.994;14.660;2023-06-26T05:53:22;97707.97;;;32.57;33.18
71915;BME280;60387;49.994;14.660;2023-06-26T05:55:56;97708.53;;;32.52;33.95
71915;BME280;60387;49.994;14.660;2023-06-26T05:58:29;97711.13;;;32.71;34.64
71915;BME280;60387;49.994;14.660;2023-06-26T06:01:03;97704.78;;;32.96;33.84
71915;BME280;60387;49.994;14.660;2023-06-26T06:03:36;97709.06;;;33.25;34.46
71915;BME280;60387;49.994;14.660;2023-06-26T06:06:10;97711.38;;;33.52;33.75
71915;BME280;60387;49.994;14.660;2023-06-26T06:08:43;97716.41;;;33.82;33.33
71915;BME280;60387;49.994;14.660;2023-06-26T06:11:17;97710.25;;;33.96;33.11
71915;BME280;60387;49.994;14.660;2023-06-26T06:13:50;97714.75;;;34.06;33.22
71915;BME280;60387;49.994;14.660;2023-06-26T06:16:23;97714.13;;;34.23;33.14
71915;BME280;60387;49.994;14.660;2023-06-26T06:18:56;97716.31;;;34.41;32.95
71915;BME280;60387;49.994;14.660;2023-06-26T06:21:30;97713.59;;;34.59;32.25
71915;BME280;60387;49.994;14.660;2023-06-26T06:24:03;97712.63;;;34.74;32.70
71915;BME280;60387;49.994;14.660;2023-06-26T06:26:36;97718.81;;;34.91;32.35
71915;BME280;60387;49.994;14.660;2023-06-26T06:29:10;97709.97;;;35.10;32.62
71915;BME280;60387;49.994;14.660;2023-06-26T06:31:43;97725.91;;;35.34;31.25
71915;BME280;60387;49.994;14.660;2023-06-26T06:34:16;97715.16;;;35.51;31.33
71915;BME280;60387;49.994;14.660;2023-06-26T06:36:49;97709.13;;;35.70;31.54
71915;BME280;60387;49.994;14.660;2023-06-26T06:39:23;97720.28;;;35.92;31.58
71915;BME280;60387;49.994;14.660;2023-06-26T06:41:56;97719.50;;;36.09;31.50
71915;BME280;60387;49.994;14.660;2023-06-26T06:44:29;97715.31;;;36.23;30.64
71915;BME280;60387;49.994;14.660;2023-06-26T06:47:03;97717.47;;;36.37;30.81
71915;BME280;60387;49.994;14.660;2023-06-26T06:49:36;97707.91;;;36.52;30.35
71915;BME280;60387;49.994;14.660;2023-06-26T06:52:09;97718.38;;;36.79;30.10
71915;BME280;60387;49.994;14.660;2023-06-26T06:54:57;97714.53;;;37.00;29.63
71915;BME280;60387;49.994;14.660;2023-06-26T06:57:30;97711.88;;;37.05;27.97
71915;BME280;60387;49.994;14.660;2023-06-26T07:00:09;97708.44;;;36.92;28.74
71915;BME280;60387;49.994;14.660;2023-06-26T07:02:43;97707.94;;;37.03;29.50
71915;BME280;60387;49.994;14.660;2023-06-26T07:05:17;97713.88;;;37.14;27.76
71915;BME280;60387;49.994;14.660;2023-06-26T07:07:50;97710.13;;;37.17;28.91
71915;BME280;60387;49.994;14.660;2023-06-26T07:10:23;97712.28;;;37.22;27.85
71915;BME280;60387;49.994;14.660;2023-06-26T07:12:57;97706.91;;;37.24;28.98
71915;BME280;60387;49.994;14.660;2023-06-26T07:15:30;97698.59;;;37.29;26.74
71915;BME280;60387;49.994;14.660;2023-06-26T07:18:04;97696.66;;;37.35;26.97
71915;BME280;60387;49.994;14.660;2023-06-26T07:20:37;97698.03;;;37.40;27.65
71915;BME280;60387;49.994;14.660;2023-06-26T07:23:10;97702.22;;;37.53;28.15
71915;BME280;60387;49.994;14.660;2023-06-26T07:25:44;97713.47;;;37.71;27.66
71915;BME280;60387;49.994;14.660;2023-06-26T07:28:17;97693.19;;;37.87;27.71
71915;BME280;60387;49.994;14.660;2023-06-26T07:30:50;97688.63;;;38.13;26.20
71915;BME280;60387;49.994;14.660;2023-06-26T07:33:24;97689.69;;;38.39;25.54
71915;BME280;60387;49.994;14.660;2023-06-26T07:35:57;97686.69;;;38.57;25.08
71915;BME280;60387;49.994;14.660;2023-06-26T07:38:30;97688.31;;;38.78;26.14
71915;BME280;60387;49.994;14.660;2023-06-26T07:41:04;97693.31;;;38.98;25.12
71915;BME280;60387;49.994;14.660;2023-06-26T07:43:37;97692.81;;;39.14;26.11
71915;BME280;60387;49.994;14.660;2023-06-26T07:46:10;97690.97;;;39.25;26.48
71915;BME280;60387;49.994;14.660;2023-06-26T07:48:43;97690.84;;;39.34;24.20
71915;BME280;60387;49.994;14.660;2023-06-26T07:51:17;97684.78;;;39.12;22.55
71915;BME280;60387;49.994;14.660;2023-06-26T07:53:50;97680.75;;;38.84;23.66
71915;BME280;60387;49.994;14.660;2023-06-26T07:56:23;97679.53;;;38.76;24.93
71915;BME280;60387;49.994;14.660;2023-06-26T07:58:56;97683.84;;;39.01;24.28
71915;BME280;60387;49.994;14.660;2023-06-26T08:01:30;97685.38;;;39.31;23.19
71915;BME280;60387;49.994;14.660;2023-06-26T08:04:03;97683.06;;;39.49;23.44
71915;BME280;60387;49.994;14.660;2023-06-26T08:06:36;97676.00;;;39.59;23.59
71915;BME280;60387;49.994;14.660;2023-06-26T08:09:13;97684.41;;;39.68;22.74
71915;BME280;60387;49.994;14.660;2023-06-26T08:11:46;97680.69;;;39.82;22.29
71915;BME280;60387;49.994;14.660;2023-06-26T08:14:19;97676.88;;;40.05;23.82
71915;BME280;60387;49.994;14.660;2023-06-26T08:16:53;97684.34;;;40.22;23.32
71915;BME280;60387;49.994;14.660;2023-06-26T08:19:26;97683.16;;;40.34;22.33
71915;BME280;60387;49.994;14.660;2023-06-26T08:21:59;97683.09;;;40.29;22.25
71915;BME280;60387;49.994;14.660;2023-06-26T08:24:33;97693.34;;;40.01;22.32
71915;BME280;60387;49.994;14.660;2023-06-26T08:27:06;97676.31;;;39.81;22.39
71915;BME280;60387;49.994;14.660;2023-06-26T08:29:39;97672.84;;;39.71;22.77
71915;BME280;60387;49.994;14.660;2023-06-26T08:32:12;97678.72;;;39.68;22.90
71915;BME280;60387;49.994;14.660;2023-06-26T08:34:46;97675.28;;;39.64;22.82
71915;BME280;60387;49.994;14.660;2023-06-26T08:37:19;97674.69;;;39.74;20.73
71915;BME280;60387;49.994;14.660;2023-06-26T08:39:52;97674.47;;;39.78;20.52
71915;BME280;60387;49.994;14.660;2023-06-26T08:42:25;97674.47;;;39.78;20.58
71915;BME280;60387;49.994;14.660;2023-06-26T08:45:02;97667.94;;;39.72;21.12
71915;BME280;60387;49.994;14.660;2023-06-26T08:47:37;97677.03;;;39.76;21.15
71915;BME280;60387;49.994;14.660;2023-06-26T08:50:12;97671.28;;;39.90;20.90
71915;BME280;60387;49.994;14.660;2023-06-26T08:52:53;97669.06;;;40.00;19.63
71915;BME280;60387;49.994;14.660;2023-06-26T08:55:30;97678.09;;;39.98;20.79
71915;BME280;60387;49.994;14.660;2023-06-26T08:58:04;97674.81;;;40.05;21.25
71915;BME280;60387;49.994;14.660;2023-06-26T09:00:38;97656.44;;;40.21;20.14
71915;BME280;60387;49.994;14.660;2023-06-26T09:03:12;97671.69;;;40.49;19.81
71915;BME280;60387;49.994;14.660;2023-06-26T09:05:46;97668.81;;;40.69;20.39
71915;BME280;60387;49.994;14.660;2023-06-26T09:08:19;97662.91;;;40.98;20.27
71915;BME280;60387;49.994;14.660;2023-06-26T09:10:52;97667.94;;;41.14;19.93
71915;BME280;60387;49.994;14.660;2023-06-26T09:13:28;97662.69;;;41.38;20.45
71915;BME280;60387;49.994;14.660;2023-06-26T09:16:08;97663.28;;;41.53;19.87
71915;BME280;60387;49.994;14.660;2023-06-26T09:18:42;97661.03;;;41.68;17.91
71915;BME280;60387;49.994;14.660;2023-06-26T09:21:15;97664.16;;;41.70;18.71
71915;BME280;60387;49.994;14.660;2023-06-26T09:23:49;97658.56;;;41.81;19.74
71915;BME280;60387;49.994;14.660;2023-06-26T09:26:22;97659.66;;;41.94;19.57
71915;BME280;60387;49.994;14.660;2023-06-26T09:28:56;97645.69;;;42.02;18.87
71915;BME280;60387;49.994;14.660;2023-06-26T09:31:30;97651.72;;;42.15;19.29
71915;BME280;60387;49.994;14.660;2023-06-26T09:34:03;97646.28;;;42.22;19.36
71915;BME280;60387;49.994;14.660;2023-06-26T09:36:37;97653.03;;;42.30;19.64
71915;BME280;60387;49.994;14.660;2023-06-26T09:39:10;97657.47;;;42.48;19.69
71915;BME280;60387;49.994;14.660;2023-06-26T09:41:43;97647.44;;;42.63;18.67
71915;BME280;60387;49.994;14.660;2023-06-26T09:44:18;97634.72;;;42.64;18.84
71915;BME280;60387;49.994;14.660;2023-06-26T09:46:51;97639.38;;;42.62;18.51
71915;BME280;60387;49.994;14.660;2023-06-26T09:49:24;97632.38;;;42.68;18.53
71915;BME280;60387;49.994;14.660;2023-06-26T09:52:00;97612.97;;;42.67;19.15
71915;BME280;60387;49.994;14.660;2023-06-26T09:54:34;97642.25;;;42.84;18.14
71915;BME280;60387;49.994;14.660;2023-06-26T09:57:12;97622.81;;;42.88;19.05
71915;BME280;60387;49.994;14.660;2023-06-26T09:59:45;97613.25;;;42.96;18.20
71915;BME280;60387;49.994;14.660;2023-06-26T10:02:18;97611.94;;;43.08;18.36
71915;BME280;60387;49.994;14.660;2023-06-26T10:04:52;97610.84;;;43.28;18.71
71915;BME280;60387;49.994;14.660;2023-06-26T10:07:25;97602.28;;;43.39;15.65
71915;BME280;60387;49.994;14.660;2023-06-26T10:10:01;97594.28;;;43.15;17.18
71915;BME280;60387;49.994;14.660;2023-06-26T10:12:35;97603.59;;;43.16;16.90
71915;BME280;60387;49.994;14.660;2023-06-26T10:15:08;97591.16;;;43.19;17.53
71915;BME280;60387;49.994;14.660;2023-06-26T10:17:43;97589.63;;;43.18;17.12
71915;BME280;60387;49.994;14.660;2023-06-26T10:20:19;97590.63;;;43.26;18.01
71915;BME280;60387;49.994;14.660;2023-06-26T10:22:54;97591.13;;;43.41;16.73
71915;BME280;60387;49.994;14.660;2023-06-26T10:25:29;97587.22;;;43.49;16.69
71915;BME280;60387;49.994;14.660;2023-06-26T10:28:04;97580.41;;;43.69;17.26
71915;BME280;60387;49.994;14.660;2023-06-26T10:30:38;97577.78;;;43.76;15.83
71915;BME280;60387;49.994;14.660;2023-06-26T10:33:13;97583.69;;;43.83;16.71
71915;BME280;60387;49.994;14.660;2023-06-26T10:35:46;97574.13;;;43.81;15.29
71915;BME280;60387;49.994;14.660;2023-06-26T10:38:19;97567.69;;;43.64;15.04
71915;BME280;60387;49.994;14.660;2023-06-26T10:40:53;97564.41;;;43.44;15.54
71915;BME280;60387;49.994;14.660;2023-06-26T10:43:30;97571.41;;;43.43;16.75
71915;BME280;60387;49.994;14.660;2023-06-26T10:46:03;97572.44;;;43.51;16.34
71915;BME280;60387;49.994;14.660;2023-06-26T10:48:59;97565.59;;;43.65;16.74
71915;BME280;60387;49.994;14.660;2023-06-26T10:51:33;97563.50;;;43.76;16.13
71915;BME280;60387;49.994;14.660;2023-06-26T10:54:13;97569.41;;;43.83;16.71
71915;BME280;60387;49.994;14.660;2023-06-26T10:56:49;97562.13;;;43.93;15.48
71915;BME280;60387;49.994;14.660;2023-06-26T10:59:27;97557.88;;;44.11;15.78
71915;BME280;60387;49.994;14.660;2023-06-26T11:02:02;97554.66;;;44.25;15.74
71915;BME280;60387;49.994;14.660;2023-06-26T11:07:25;97547.38;;;44.24;16.55
71915;BME280;60387;49.994;14.660;2023-06-26T11:12:45;97543.72;;;44.29;15.56
71915;BME280;60387;49.994;14.660;2023-06-26T11:15:19;97536.50;;;44.23;15.43
71915;BME280;60387;49.994;14.660;2023-06-26T11:17:53;97540.13;;;44.23;16.05
71915;BME280;60387;49.994;14.660;2023-06-26T11:20:27;97536.69;;;44.30;15.37
71915;BME280;60387;49.994;14.660;2023-06-26T11:23:00;97529.09;;;44.38;14.96
71915;BME280;60387;49.994;14.660;2023-06-26T11:25:37;97529.25;;;44.57;15.44
71915;BME280;60387;49.994;14.660;2023-06-26T11:28:10;97535.59;;;44.68;15.63
71915;BME280;60387;49.994;14.660;2023-06-26T11:30:44;97532.22;;;44.70;14.98
71915;BME280;60387;49.994;14.660;2023-06-26T11:33:17;97537.13;;;44.45;15.19
71915;BME280;60387;49.994;14.660;2023-06-26T11:35:50;97521.25;;;44.09;15.23
71915;BME280;60387;49.994;14.660;2023-06-26T11:38:24;97514.66;;;43.85;15.87
71915;BME280;60387;49.994;14.660;2023-06-26T11:40:59;97517.84;;;43.71;15.06
71915;BME280;60387;49.994;14.660;2023-06-26T11:43:33;97514.25;;;43.59;15.54
71915;BME280;60387;49.994;14.660;2023-06-26T11:46:07;97513.47;;;43.64;15.88
71915;BME280;60387;49.994;14.660;2023-06-26T11:48:40;97503.78;;;43.78;15.87
71915;BME280;60387;49.994;14.660;2023-06-26T11:51:14;97503.53;;;43.76;15.57
71915;BME280;60387;49.994;14.660;2023-06-26T11:53:48;97504.34;;;43.71;15.08
71915;BME280;60387;49.994;14.660;2023-06-26T11:56:21;97500.19;;;43.78;14.62
71915;BME280;60387;49.994;14.660;2023-06-26T11:59:05;97504.97;;;43.99;14.88
71915;BME280;60387;49.994;14.660;2023-06-26T12:01:42;97501.03;;;44.07;15.37
71915;BME280;60387;49.994;14.660;2023-06-26T12:04:17;97504.13;;;44.09;14.71
71915;BME280;60387;49.994;14.660;2023-06-26T12:06:52;97503.06;;;44.12;15.57
71915;BME280;60387;49.994;14.660;2023-06-26T12:09:26;97497.59;;;44.14;15.22
71915;BME280;60387;49.994;14.660;2023-06-26T12:12:01;97496.56;;;44.12;14.52
71915;BME280;60387;49.994;14.660;2023-06-26T12:14:34;97494.47;;;44.18;15.28
71915;BME280;60387;49.994;14.660;2023-06-26T12:17:10;97496.00;;;44.19;14.92
71915;BME280;60387;49.994;14.660;2023-06-26T12:19:45;97490.53;;;44.21;14.81
71915;BME280;60387;49.994;14.660;2023-06-26T12:22:19;97484.75;;;44.26;15.09
71915;BME280;60387;49.994;14.660;2023-06-26T12:24:56;97489.31;;;44.40;13.99
71915;BME280;60387;49.994;14.660;2023-06-26T12:27:30;97483.84;;;44.42;14.35
71915;BME280;60387;49.994;14.660;2023-06-26T12:30:04;97477.09;;;44.45;14.07
71915;BME280;60387;49.994;14.660;2023-06-26T12:32:38;97478.59;;;44.52;14.97
71915;BME280;60387;49.994;14.660;2023-06-26T12:35:11;97467.41;;;44.54;14.45
71915;BME280;60387;49.994;14.660;2023-06-26T12:37:44;97473.63;;;44.52;14.91
71915;BME280;60387;49.994;14.660;2023-06-26T12:40:18;97462.28;;;44.41;14.24
71915;BME280;60387;49.994;14.660;2023-06-26T12:42:53;97469.25;;;44.16;13.93
71915;BME280;60387;49.994;14.660;2023-06-26T12:45:26;97468.13;;;43.95;14.47
71915;BME280;60387;49.994;14.660;2023-06-26T12:48:17;97461.38;;;43.93;14.36
71915;BME280;60387;49.994;14.660;2023-06-26T12:50:51;97445.38;;;43.85;14.57
71915;BME280;60387;49.994;14.660;2023-06-26T12:53:24;97456.97;;;43.92;14.65
71915;BME280;60387;49.994;14.660;2023-06-26T12:55:57;97452.34;;;43.83;14.58
71915;BME280;60387;49.994;14.660;2023-06-26T12:58:30;97447.03;;;43.64;15.36
71915;BME280;60387;49.994;14.660;2023-06-26T13:01:06;97447.34;;;43.55;15.42
71915;BME280;60387;49.994;14.660;2023-06-26T13:03:42;97440.13;;;43.48;15.13
71915;BME280;60387;49.994;14.660;2023-06-26T13:06:15;97436.47;;;43.48;15.29
71915;BME280;60387;49.994;14.660;2023-06-26T13:08:49;97429.25;;;43.41;15.35
71915;BME280;60387;49.994;14.660;2023-06-26T13:11:22;97432.63;;;43.40;14.49
71915;BME280;60387;49.994;14.660;2023-06-26T13:13:56;97431.91;;;43.34;15.11
71915;BME280;60387;49.994;14.660;2023-06-26T13:16:29;97423.06;;;43.32;14.99
71915;BME280;60387;49.994;14.660;2023-06-26T13:19:02;97418.16;;;43.32;14.98
71915;BME280;60387;49.994;14.660;2023-06-26T13:21:36;97413.72;;;43.37;14.62
71915;BME280;60387;49.994;14.660;2023-06-26T13:24:09;97412.13;;;43.41;15.02
71915;BME280;60387;49.994;14.660;2023-06-26T13:26:43;97411.78;;;43.56;15.08
71915;BME280;60387;49.994;14.660;2023-06-26T13:29:16;97407.06;;;43.64;14.89
71915;BME280;60387;49.994;14.660;2023-06-26T13:31:49;97407.59;;;43.68;15.11
71915;BME280;60387;49.994;14.660;2023-06-26T13:34:23;97399.56;;;43.61;14.78
71915;BME280;60387;49.994;14.660;2023-06-26T13:36:57;97399.81;;;43.63;15.07
71915;BME280;60387;49.994;14.660;2023-06-26T13:39:30;97380.38;;;43.56;14.98
71915;BME280;60387;49.994;14.660;2023-06-26T13:42:03;97375.94;;;43.60;14.37
71915;BME280;60387;49.994;14.660;2023-06-26T13:44:37;97386.84;;;43.62;14.58